Oshtemo, Michigan
Current Conditions -  °F | °C
As of 10:53 PM on Sunday 23 Nov 2014 (Local Time) from KAZO Reporting Station
Light Rain Light Rain  
Wind Chill: 50°   Ceiling: 800
Heat Index: 50°   Visibility: 4mi
Dew Point: 48°   Wind: 8mph
Humidity: 93%   Direction: 140°SE
Pressure: 29.2"   Gusts: NA
Location:  42.26°N, 85.68°W
Report Text: KAZO 240353Z 14007KT 4SM -RA BR OVC008 10/09 A2920 RMK AO2 CIG 005V010 PRESFR SLP891 P0007 T01000089
Loading
Personal Weather Stations






























Interactive Weather Map New forecast layout! Learn more

10-Day Weather Forecast

Advertisements
Track Severe Weather on mobile